Time;durP1;ratioP1;P1;durP2;ratioP2;P2;SDS_P1;SDS_P2;PMS_P1;PMS_P2;Temp;Humidity;BMP_temperature;BMP_pressure;BME280_temperature;BME280_humidity;BME280_pressure;Samples;Min_cycle;Max_cycle;Signal;HPM_P1;HPM_P2
2023/10/24 00:01:38;;;;;;;13.40;6.23;;;10.10;99.90;;;;;;4229612;28;20051;-60
2023/10/24 00:03:39;;;;;;;12.10;6.83;;;10.10;99.90;;;;;;4228312;28;20045;-61
2023/10/24 00:05:40;;;;;;;12.93;7.27;;;10.00;99.90;;;;;;4229573;28;20040;-61
2023/10/24 00:07:42;;;;;;;14.80;7.17;;;9.90;99.90;;;;;;4228182;27;20139;-61
2023/10/24 00:09:43;;;;;;;18.83;8.37;;;9.80;99.90;;;;;;4228476;28;20039;-61
2023/10/24 00:11:44;;;;;;;10.70;7.50;;;9.80;99.90;;;;;;4228268;28;20039;-62
2023/10/24 00:13:45;;;;;;;13.53;7.20;;;9.80;99.90;;;;;;4228148;27;20101;-61
2023/10/24 00:15:46;;;;;;;14.27;6.90;;;9.80;99.90;;;;;;4228214;28;20139;-60
2023/10/24 00:17:47;;;;;;;13.37;7.30;;;9.80;99.90;;;;;;4228764;27;20036;-61
2023/10/24 00:19:49;;;;;;;9.83;6.33;;;9.80;99.90;;;;;;4228058;28;20160;-60
2023/10/24 00:21:50;;;;;;;10.63;6.63;;;9.80;99.90;;;;;;4228407;28;20028;-61
2023/10/24 00:23:52;;;;;;;12.33;6.93;;;9.70;99.90;;;;;;4228560;28;20100;-59
2023/10/24 00:25:53;;;;;;;15.20;7.57;;;9.70;99.90;;;;;;4227495;27;20061;-61
2023/10/24 00:27:54;;;;;;;16.27;7.33;;;9.60;99.90;;;;;;4229215;27;20032;-61
2023/10/24 00:29:55;;;;;;;16.03;7.53;;;9.60;99.90;;;;;;4228135;27;20060;-61
2023/10/24 00:31:56;;;;;;;11.30;7.13;;;9.50;99.90;;;;;;4229300;28;20035;-61
2023/10/24 00:33:57;;;;;;;14.57;8.40;;;9.60;99.90;;;;;;4228037;28;20736;-60
2023/10/24 00:35:58;;;;;;;13.53;8.27;;;9.60;99.90;;;;;;4229042;27;20065;-61
2023/10/24 00:38:00;;;;;;;21.03;8.97;;;9.60;99.90;;;;;;4227923;27;20168;-60
2023/10/24 00:40:02;;;;;;;17.80;9.83;;;9.60;99.90;;;;;;4228005;28;20406;-61
2023/10/24 00:42:05;;;;;;;16.10;9.37;;;9.70;99.90;;;;;;4227565;28;20015;-61
2023/10/24 00:44:07;;;;;;;17.93;10.10;;;9.70;99.90;;;;;;4228612;28;20443;-61
2023/10/24 00:46:09;;;;;;;12.27;8.77;;;9.70;99.90;;;;;;4227666;28;20452;-61
2023/10/24 00:48:10;;;;;;;14.53;9.60;;;9.70;99.90;;;;;;4228238;28;20092;-58
2023/10/24 00:50:13;;;;;;;18.37;9.13;;;9.60;99.90;;;;;;4228244;28;20393;-61
2023/10/24 00:52:14;;;;;;;14.53;8.77;;;9.60;99.90;;;;;;4228039;28;20031;-61
2023/10/24 00:54:16;;;;;;;15.77;8.47;;;9.60;99.90;;;;;;4228512;28;20040;-61
2023/10/24 00:56:17;;;;;;;14.10;8.13;;;9.60;99.90;;;;;;4227445;28;20031;-61
2023/10/24 00:58:19;;;;;;;16.30;8.53;;;9.50;99.90;;;;;;4228537;28;20031;-61
2023/10/24 01:00:23;;;;;;;16.03;8.77;;;9.50;99.90;;;;;;4227809;27;20078;-61
2023/10/24 01:02:24;;;;;;;20.97;9.03;;;9.50;99.90;;;;;;4228922;28;20039;-61
2023/10/24 01:04:26;;;;;;;20.07;8.80;;;9.50;99.90;;;;;;4227347;28;20035;-61
2023/10/24 01:06:27;;;;;;;22.23;8.90;;;9.40;99.90;;;;;;4228363;27;20031;-60
2023/10/24 01:08:28;;;;;;;19.13;9.03;;;9.50;99.90;;;;;;4227130;28;20024;-60
2023/10/24 01:10:30;;;;;;;15.43;8.80;;;9.50;99.90;;;;;;4228367;28;20043;-60
2023/10/24 01:12:32;;;;;;;20.30;8.70;;;9.60;99.90;;;;;;4227050;28;20084;-60
2023/10/24 01:14:33;;;;;;;16.47;8.63;;;9.60;99.90;;;;;;4227818;28;20032;-61
2023/10/24 01:16:42;;;;;;;14.13;8.83;;;9.70;99.90;;;;;;4227198;28;20060;-61
2023/10/24 01:18:43;;;;;;;16.27;8.83;;;9.80;99.90;;;;;;4228268;28;20104;-60
2023/10/24 01:20:44;;;;;;;20.07;9.87;;;9.80;99.90;;;;;;4227436;28;20023;-61
2023/10/24 01:22:46;;;;;;;14.37;8.63;;;9.80;99.90;;;;;;4227825;28;20040;-61
2023/10/24 01:24:48;;;;;;;13.27;8.10;;;9.80;99.90;;;;;;4227346;28;20119;-60
2023/10/24 01:26:51;;;;;;;17.90;8.90;;;9.80;99.90;;;;;;4227133;28;20035;-61
2023/10/24 01:28:52;;;;;;;16.37;8.43;;;9.80;99.90;;;;;;4227684;28;20708;-61
2023/10/24 01:30:54;;;;;;;14.60;8.63;;;9.80;99.90;;;;;;4226450;28;20603;-60
2023/10/24 01:32:55;;;;;;;17.53;8.87;;;9.70;99.90;;;;;;4228298;28;20093;-60
2023/10/24 01:34:56;;;;;;;19.30;9.07;;;9.70;99.90;;;;;;4226003;28;20044;-61
2023/10/24 01:36:57;;;;;;;14.30;8.47;;;9.70;99.90;;;;;;4227995;28;20065;-60
2023/10/24 01:38:58;;;;;;;16.40;8.60;;;9.70;99.90;;;;;;4226716;28;20876;-61
2023/10/24 01:40:59;;;;;;;16.33;8.43;;;9.70;99.90;;;;;;4227291;28;20047;-61
2023/10/24 01:43:00;;;;;;;19.60;8.30;;;9.70;99.90;;;;;;4226441;28;20044;-61
2023/10/24 01:45:02;;;;;;;15.33;8.90;;;9.60;99.90;;;;;;4227832;28;20031;-60
2023/10/24 01:47:03;;;;;;;15.17;9.77;;;9.60;99.90;;;;;;4226208;28;20309;-61
2023/10/24 01:49:06;;;;;;;18.53;9.50;;;9.50;99.90;;;;;;4227506;28;20104;-61
2023/10/24 01:51:07;;;;;;;16.33;9.70;;;9.50;99.90;;;;;;4226507;28;20051;-60
2023/10/24 01:53:08;;;;;;;19.97;9.80;;;9.50;99.90;;;;;;4227288;28;20039;-61
2023/10/24 01:55:09;;;;;;;19.70;9.80;;;9.50;99.90;;;;;;4226623;28;20160;-60
2023/10/24 01:57:11;;;;;;;20.17;10.33;;;9.50;99.90;;;;;;4226908;28;20096;-61
2023/10/24 01:59:12;;;;;;;21.43;10.57;;;9.50;99.90;;;;;;4227522;28;20081;-61
2023/10/24 02:01:14;;;;;;;19.47;10.53;;;9.50;99.90;;;;;;4225774;28;20473;-61
2023/10/24 02:03:15;;;;;;;17.20;10.50;;;9.40;99.90;;;;;;4227450;28;20036;-60
2023/10/24 02:05:16;;;;;;;18.47;11.37;;;9.40;99.90;;;;;;4226461;28;20471;-60
2023/10/24 02:07:19;;;;;;;20.17;11.63;;;9.50;99.90;;;;;;4227641;28;20084;-60
2023/10/24 02:09:20;;;;;;;22.17;12.33;;;9.50;99.90;;;;;;4226090;28;20105;-61
2023/10/24 02:11:21;;;;;;;19.90;12.57;;;9.40;99.90;;;;;;4227632;28;20473;-61
2023/10/24 02:13:23;;;;;;;21.40;12.03;;;9.40;99.90;;;;;;4226006;28;20058;-61
2023/10/24 02:15:24;;;;;;;22.17;12.87;;;9.40;99.90;;;;;;4227286;28;20081;-61
2023/10/24 02:17:25;;;;;;;22.73;11.70;;;9.40;99.90;;;;;;4226622;28;20445;-59
2023/10/24 02:19:26;;;;;;;25.23;12.20;;;9.40;99.90;;;;;;4227446;28;20103;-60
2023/10/24 02:21:27;;;;;;;26.10;12.63;;;9.40;99.90;;;;;;4226765;28;20035;-60
2023/10/24 02:23:28;;;;;;;24.33;11.37;;;9.40;99.90;;;;;;4227141;28;20027;-60
2023/10/24 02:25:29;;;;;;;25.97;12.17;;;9.50;99.90;;;;;;4226738;28;20044;-61
2023/10/24 02:27:32;;;;;;;21.70;12.73;;;9.50;99.90;;;;;;4226711;28;20537;-60
2023/10/24 02:29:36;;;;;;;21.30;11.80;;;9.50;99.90;;;;;;4227119;28;20453;-59
2023/10/24 02:31:37;;;;;;;24.83;11.80;;;9.50;99.90;;;;;;4226297;28;20039;-61
2023/10/24 02:33:38;;;;;;;19.97;12.70;;;9.40;99.90;;;;;;4227424;28;20384;-60
2023/10/24 02:35:39;;;;;;;20.80;12.47;;;9.40;99.90;;;;;;4226549;28;20028;-61
2023/10/24 02:37:40;;;;;;;22.10;11.70;;;9.30;99.90;;;;;;4227272;28;20065;-60
2023/10/24 02:39:42;;;;;;;19.37;12.37;;;9.30;99.90;;;;;;4225962;28;20070;-60
2023/10/24 02:41:43;;;;;;;18.90;11.77;;;9.30;99.90;;;;;;4226913;28;20475;-60
2023/10/24 02:43:44;;;;;;;19.97;11.57;;;9.30;99.90;;;;;;4225894;28;20130;-60
2023/10/24 02:45:45;;;;;;;19.30;12.47;;;9.30;99.90;;;;;;4227577;28;20035;-60
2023/10/24 02:47:47;;;;;;;20.60;11.63;;;9.30;99.90;;;;;;4226102;28;20496;-63
2023/10/24 02:49:48;;;;;;;20.97;11.73;;;9.40;99.90;;;;;;4226985;28;20039;-60
2023/10/24 02:51:49;;;;;;;24.33;12.57;;;9.40;99.90;;;;;;4226276;27;20089;-60
2023/10/24 02:53:50;;;;;;;25.17;13.07;;;9.30;99.90;;;;;;4227164;28;20052;-61
2023/10/24 02:55:52;;;;;;;19.57;11.70;;;9.30;99.90;;;;;;4226054;28;20959;-60
2023/10/24 02:57:53;;;;;;;22.53;11.93;;;9.20;99.90;;;;;;4226689;27;20089;-61
2023/10/24 02:59:55;;;;;;;19.43;11.13;;;9.10;99.90;;;;;;4227481;27;20044;-61
2023/10/24 03:01:56;;;;;;;18.07;11.37;;;9.10;99.90;;;;;;4224964;28;20047;-61
2023/10/24 03:03:57;;;;;;;22.33;11.43;;;9.10;99.90;;;;;;4229642;28;20065;-60
2023/10/24 03:05:58;;;;;;;19.80;11.40;;;9.10;99.90;;;;;;4229095;27;20085;-61
2023/10/24 03:08:00;;;;;;;21.93;11.97;;;9.10;99.90;;;;;;4230427;28;20429;-61
2023/10/24 03:10:01;;;;;;;19.83;11.80;;;9.10;99.90;;;;;;4228944;28;20035;-60
2023/10/24 03:12:05;;;;;;;20.10;11.50;;;9.10;99.90;;;;;;4230427;28;20105;-61
2023/10/24 03:14:06;;;;;;;21.57;11.17;;;9.10;99.90;;;;;;4228995;27;20376;-61
2023/10/24 03:16:07;;;;;;;23.67;11.87;;;9.10;99.90;;;;;;4230199;28;20039;-60
2023/10/24 03:18:08;;;;;;;20.10;12.57;;;9.10;99.90;;;;;;4229951;27;20039;-60
2023/10/24 03:20:10;;;;;;;25.13;11.70;;;9.10;99.90;;;;;;4229040;28;20471;-60
2023/10/24 03:22:11;;;;;;;15.73;11.30;;;9.10;99.90;;;;;;4229044;28;20425;-60
2023/10/24 03:24:12;;;;;;;19.63;11.00;;;9.10;99.90;;;;;;4227613;28;20068;-60
2023/10/24 03:26:13;;;;;;;19.63;11.77;;;9.10;99.90;;;;;;4229182;28;20031;-61
2023/10/24 03:28:14;;;;;;;19.20;10.43;;;9.10;99.90;;;;;;4229420;28;20475;-61
2023/10/24 03:30:15;;;;;;;19.27;11.37;;;9.10;99.90;;;;;;4222415;28;20073;-60
2023/10/24 03:32:17;;;;;;;18.77;11.47;;;9.10;99.90;;;;;;4211724;28;20032;-61
2023/10/24 03:34:18;;;;;;;19.90;10.27;;;9.20;99.90;;;;;;4212977;28;20488;-61
2023/10/24 03:36:19;;;;;;;18.60;11.10;;;9.20;99.90;;;;;;4226156;28;20471;-60
2023/10/24 03:38:20;;;;;;;15.93;10.60;;;9.20;99.90;;;;;;4229630;28;20032;-60
2023/10/24 03:40:25;;;;;;;23.87;11.37;;;9.20;99.90;;;;;;4228204;28;20011;-56
2023/10/24 03:42:26;;;;;;;21.43;12.07;;;9.20;99.90;;;;;;4229979;28;20471;-61
2023/10/24 03:44:27;;;;;;;17.90;11.83;;;9.20;99.90;;;;;;4228248;27;20507;-62
2023/10/24 03:46:28;;;;;;;22.73;11.57;;;9.20;99.90;;;;;;4227755;27;20039;-61
2023/10/24 03:48:29;;;;;;;19.47;11.73;;;9.20;99.90;;;;;;4228401;27;20449;-60
2023/10/24 03:50:36;;;;;;;23.17;12.23;;;9.10;99.90;;;;;;4229339;27;20108;-61
2023/10/24 03:52:38;;;;;;;20.93;11.43;;;9.10;99.90;;;;;;4228441;28;20027;-61
2023/10/24 03:54:39;;;;;;;21.93;11.90;;;9.10;99.90;;;;;;4229482;28;20027;-61
2023/10/24 03:56:41;;;;;;;23.30;12.73;;;9.10;99.90;;;;;;4225836;28;20039;-60
2023/10/24 03:58:42;;;;;;;19.17;11.50;;;9.10;99.90;;;;;;4227580;28;20028;-61
2023/10/24 04:00:43;;;;;;;23.33;12.13;;;9.10;99.90;;;;;;4216649;28;20189;-62
2023/10/24 04:02:46;;;;;;;22.40;12.37;;;9.10;99.90;;;;;;4211555;28;20189;-61
2023/10/24 04:04:47;;;;;;;23.57;11.93;;;9.10;99.90;;;;;;4224373;28;20040;-61
2023/10/24 04:06:49;;;;;;;21.70;11.53;;;9.00;99.90;;;;;;4228420;27;20072;-60
2023/10/24 04:08:50;;;;;;;19.00;11.50;;;9.00;99.90;;;;;;4229013;28;20139;-62
2023/10/24 04:10:51;;;;;;;26.77;13.13;;;8.90;99.90;;;;;;4227500;28;20451;-61
2023/10/24 04:12:52;;;;;;;25.80;12.97;;;8.90;99.90;;;;;;4218703;27;20411;-61
2023/10/24 04:14:53;;;;;;;21.23;12.93;;;8.90;99.90;;;;;;4227719;28;20089;-61
2023/10/24 04:16:55;;;;;;;19.40;12.87;;;8.90;99.90;;;;;;4224948;27;20517;-60
2023/10/24 04:18:56;;;;;;;31.00;12.77;;;8.90;99.90;;;;;;4218393;28;20039;-60
2023/10/24 04:20:57;;;;;;;21.53;12.73;;;8.90;99.90;;;;;;4223469;28;20040;-60
2023/10/24 04:23:04;;;;;;;20.27;12.23;;;9.00;99.90;;;;;;4218605;27;20137;-60
2023/10/24 04:25:06;;;;;;;22.47;13.07;;;8.90;99.90;;;;;;4223496;28;20032;-60
2023/10/24 04:27:09;;;;;;;27.73;13.20;;;9.00;99.90;;;;;;4224394;27;20140;-57
2023/10/24 04:29:10;;;;;;;22.83;12.80;;;8.90;99.90;;;;;;4215125;28;20755;-61
2023/10/24 04:31:11;;;;;;;25.23;13.40;;;8.90;99.90;;;;;;4226765;28;20059;-60
2023/10/24 04:33:12;;;;;;;19.87;12.60;;;8.90;99.90;;;;;;4227698;28;20044;-61
2023/10/24 04:35:13;;;;;;;26.70;13.63;;;8.90;99.90;;;;;;4227623;27;20380;-62
2023/10/24 04:37:14;;;;;;;23.40;13.20;;;8.90;99.90;;;;;;4217436;28;20450;-62
2023/10/24 04:39:15;;;;;;;21.80;13.10;;;8.90;99.90;;;;;;4228208;28;20077;-61
2023/10/24 04:41:17;;;;;;;30.73;14.73;;;8.90;99.90;;;;;;4227383;28;20100;-60
2023/10/24 04:43:18;;;;;;;21.27;12.97;;;8.90;99.90;;;;;;4228456;28;20032;-61
2023/10/24 04:45:19;;;;;;;20.47;12.77;;;8.90;99.90;;;;;;4227004;28;20041;-59
2023/10/24 04:47:21;;;;;;;26.90;13.07;;;9.00;99.90;;;;;;4228674;28;20024;-60
2023/10/24 04:49:22;;;;;;;27.40;11.97;;;9.10;99.90;;;;;;4227400;28;20118;-59
2023/10/24 04:51:23;;;;;;;18.87;12.30;;;9.10;99.90;;;;;;4229216;27;20081;-60
2023/10/24 04:53:24;;;;;;;22.53;12.93;;;9.20;99.90;;;;;;4228260;27;20035;-61
2023/10/24 04:55:25;;;;;;;23.83;11.77;;;9.20;99.90;;;;;;4228406;28;20043;-61
2023/10/24 04:57:26;;;;;;;26.13;14.00;;;9.20;99.90;;;;;;4227284;28;20128;-60
2023/10/24 04:59:27;;;;;;;23.37;13.23;;;9.20;99.90;;;;;;4227891;28;20476;-62
2023/10/24 05:01:28;;;;;;;23.83;13.60;;;9.20;99.90;;;;;;4227735;28;20028;-60
2023/10/24 05:03:29;;;;;;;21.00;13.73;;;9.10;99.90;;;;;;4228302;27;20380;-61
2023/10/24 05:05:31;;;;;;;25.87;13.10;;;9.10;99.90;;;;;;4228587;27;20088;-60
2023/10/24 05:07:32;;;;;;;24.07;13.40;;;9.10;99.90;;;;;;4227879;27;20504;-60
2023/10/24 05:09:33;;;;;;;22.47;13.27;;;9.20;99.90;;;;;;4228049;28;20027;-60
2023/10/24 05:11:39;;;;;;;21.67;12.53;;;9.20;99.90;;;;;;4227598;27;20043;-60
2023/10/24 05:13:40;;;;;;;28.87;12.20;;;9.20;99.90;;;;;;4228133;28;20099;-60
2023/10/24 05:15:41;;;;;;;22.63;12.27;;;9.20;99.90;;;;;;4227109;28;20867;-61
2023/10/24 05:17:43;;;;;;;23.20;13.40;;;9.20;99.90;;;;;;4226591;28;20069;-60
2023/10/24 05:19:45;;;;;;;22.80;12.33;;;9.20;99.90;;;;;;4226759;28;20495;-60
2023/10/24 05:21:46;;;;;;;22.97;13.30;;;9.20;99.90;;;;;;4228168;28;20027;-60
2023/10/24 05:23:48;;;;;;;27.77;14.40;;;9.10;99.90;;;;;;4226692;28;20031;-61
2023/10/24 05:25:52;;;;;;;28.10;15.07;;;9.10;99.90;;;;;;4227136;28;20105;-61
2023/10/24 05:27:53;;;;;;;28.40;15.97;;;9.10;99.90;;;;;;4226827;28;20080;-62
2023/10/24 05:29:54;;;;;;;28.03;16.40;;;9.10;99.90;;;;;;4227725;28;20077;-60
2023/10/24 05:31:55;;;;;;;23.77;13.33;;;9.20;99.90;;;;;;4226766;28;20043;-60
2023/10/24 05:33:57;;;;;;;21.83;14.47;;;9.20;99.90;;;;;;4227395;28;20112;-60
2023/10/24 05:35:58;;;;;;;24.73;14.33;;;9.20;99.90;;;;;;4227503;28;20430;-61
2023/10/24 05:37:59;;;;;;;23.87;14.27;;;9.20;99.90;;;;;;4227420;27;20043;-60
2023/10/24 05:40:01;;;;;;;27.73;13.87;;;9.30;99.90;;;;;;4227443;28;20039;-60
2023/10/24 05:42:02;;;;;;;23.27;14.37;;;9.30;99.90;;;;;;4226408;28;20039;-60
2023/10/24 05:44:03;;;;;;;24.77;13.53;;;9.20;99.90;;;;;;4227924;28;20396;-60
2023/10/24 05:46:05;;;;;;;35.90;15.20;;;9.20;99.90;;;;;;4226447;28;20096;-60
2023/10/24 05:48:06;;;;;;;24.57;13.37;;;9.30;99.90;;;;;;4228061;27;20039;-59
2023/10/24 05:50:08;;;;;;;31.23;13.63;;;9.30;99.90;;;;;;4226260;28;20047;-59
2023/10/24 05:52:09;;;;;;;24.07;12.83;;;9.30;99.90;;;;;;4227618;28;20104;-60
2023/10/24 05:54:10;;;;;;;26.90;12.53;;;9.30;99.90;;;;;;4226300;28;20096;-60
2023/10/24 05:56:11;;;;;;;30.97;13.43;;;9.30;99.90;;;;;;4228122;27;20039;-60
2023/10/24 05:58:12;;;;;;;27.00;14.77;;;9.30;99.90;;;;;;4226287;28;20068;-60
2023/10/24 06:00:13;;;;;;;26.50;14.70;;;9.40;99.90;;;;;;4227354;28;20047;-61
2023/10/24 06:02:15;;;;;;;25.20;14.13;;;9.30;99.90;;;;;;4226414;28;20036;-60
2023/10/24 06:04:16;;;;;;;22.60;12.53;;;9.30;99.90;;;;;;4226952;28;20077;-60
2023/10/24 06:06:17;;;;;;;27.70;13.13;;;9.40;99.90;;;;;;4226838;28;20028;-60
2023/10/24 06:08:18;;;;;;;22.93;13.23;;;9.40;99.90;;;;;;4226762;28;20028;-60
2023/10/24 06:10:19;;;;;;;28.13;13.30;;;9.40;99.90;;;;;;4226949;28;20019;-60
2023/10/24 06:12:20;;;;;;;24.23;13.30;;;9.40;99.90;;;;;;4226860;27;20100;-61
2023/10/24 06:14:21;;;;;;;24.17;13.40;;;9.40;99.90;;;;;;4227575;28;20038;-60
2023/10/24 06:16:23;;;;;;;21.70;12.80;;;9.40;99.90;;;;;;4226237;28;20032;-59
2023/10/24 06:18:24;;;;;;;25.93;13.20;;;9.60;99.90;;;;;;4227293;28;20088;-59
2023/10/24 06:20:25;;;;;;;26.43;12.17;;;9.60;99.90;;;;;;4226108;28;20031;-61
2023/10/24 06:22:28;;;;;;;22.23;12.97;;;9.70;99.90;;;;;;4227802;27;20501;-60
2023/10/24 06:24:29;;;;;;;25.43;12.30;;;9.70;99.90;;;;;;4225873;28;20076;-59
2023/10/24 06:26:30;;;;;;;22.17;11.30;;;9.80;99.90;;;;;;4227386;28;20069;-60
2023/10/24 06:28:31;;;;;;;24.60;12.63;;;9.80;99.90;;;;;;4225915;28;20089;-60
2023/10/24 06:30:33;;;;;;;20.47;12.17;;;9.80;99.90;;;;;;4227050;28;20024;-61
2023/10/24 06:32:35;;;;;;;30.00;12.63;;;9.80;99.90;;;;;;4226188;28;20450;-61
2023/10/24 06:34:36;;;;;;;26.63;12.67;;;9.80;99.90;;;;;;4226881;28;20441;-60
2023/10/24 06:36:37;;;;;;;34.63;16.47;;;9.80;99.90;;;;;;4226482;28;20128;-60
2023/10/24 06:38:38;;;;;;;36.17;17.30;;;9.80;99.90;;;;;;4228389;28;20025;-60
2023/10/24 06:40:45;;;;;;;32.30;16.60;;;9.90;99.90;;;;;;4230027;28;20085;-61
2023/10/24 06:42:46;;;;;;;32.40;15.43;;;9.90;99.90;;;;;;4229530;28;20080;-61
2023/10/24 06:44:47;;;;;;;31.30;14.67;;;9.80;99.90;;;;;;4230403;28;20031;-61
2023/10/24 06:46:49;;;;;;;31.53;14.10;;;9.90;99.90;;;;;;4229574;28;20548;-60
2023/10/24 06:48:52;;;;;;;35.50;14.43;;;9.90;99.90;;;;;;4231131;27;20441;-61
2023/10/24 06:50:53;;;;;;;34.07;14.70;;;9.90;99.90;;;;;;4229204;28;20500;-60
2023/10/24 06:52:54;;;;;;;33.40;16.37;;;10.00;99.90;;;;;;4230476;28;20422;-61
2023/10/24 06:54:56;;;;;;;31.97;15.53;;;10.00;99.90;;;;;;4229226;27;20495;-60
2023/10/24 06:56:57;;;;;;;34.53;14.73;;;10.10;99.90;;;;;;4230399;28;20039;-61
2023/10/24 06:58:58;;;;;;;29.93;15.10;;;10.10;99.90;;;;;;4229285;28;20068;-61
2023/10/24 07:00:59;;;;;;;27.33;15.03;;;10.10;99.90;;;;;;4230530;28;20089;-62
2023/10/24 07:03:00;;;;;;;30.20;14.60;;;10.10;99.90;;;;;;4229207;28;20035;-61
2023/10/24 07:05:02;;;;;;;37.47;16.73;;;10.20;99.90;;;;;;4230113;28;20136;-61
2023/10/24 07:07:03;;;;;;;32.03;15.10;;;10.20;99.90;;;;;;4230075;27;20503;-61
2023/10/24 07:09:04;;;;;;;27.70;16.03;;;10.20;99.90;;;;;;4229579;28;20024;-60
2023/10/24 07:11:05;;;;;;;31.30;15.67;;;10.30;99.90;;;;;;4229417;28;20052;-61
2023/10/24 07:13:06;;;;;;;31.93;15.17;;;10.30;99.90;;;;;;4229204;28;20024;-61
2023/10/24 07:15:08;;;;;;;32.77;16.97;;;10.40;99.90;;;;;;4230231;27;20036;-60
2023/10/24 07:17:09;;;;;;;32.17;15.87;;;10.40;99.90;;;;;;4228908;28;20371;-60
2023/10/24 07:19:11;;;;;;;23.27;13.87;;;10.50;99.90;;;;;;4230056;28;20028;-61
2023/10/24 07:21:15;;;;;;;31.10;16.23;;;10.50;99.90;;;;;;4228859;28;20019;-61
2023/10/24 07:23:16;;;;;;;24.27;15.60;;;10.50;99.90;;;;;;4230469;27;20520;-63
2023/10/24 07:25:17;;;;;;;33.27;15.70;;;10.60;99.90;;;;;;4228863;27;20095;-61
2023/10/24 07:27:19;;;;;;;32.90;15.93;;;10.70;99.90;;;;;;4230032;27;20365;-61
2023/10/24 07:29:21;;;;;;;29.97;16.10;;;10.70;99.90;;;;;;4228856;28;20023;-61
2023/10/24 07:31:22;;;;;;;23.50;14.97;;;10.80;99.90;;;;;;4230060;28;20131;-60
2023/10/24 07:33:23;;;;;;;33.73;16.80;;;10.80;99.90;;;;;;4228898;28;20032;-61
2023/10/24 07:35:24;;;;;;;34.50;16.07;;;10.90;99.90;;;;;;4229692;28;20088;-60
2023/10/24 07:37:25;;;;;;;26.37;15.60;;;10.90;99.90;;;;;;4228697;27;20032;-60
2023/10/24 07:39:27;;;;;;;31.30;15.83;;;11.00;99.90;;;;;;4229124;28;20020;-60
2023/10/24 07:41:28;;;;;;;31.93;15.97;;;11.10;99.90;;;;;;4229038;28;20084;-60
2023/10/24 07:43:29;;;;;;;32.90;17.00;;;11.20;99.90;;;;;;4228604;28;20024;-61
2023/10/24 07:45:30;;;;;;;29.90;16.70;;;11.30;99.90;;;;;;4230024;27;20426;-61
2023/10/24 07:47:32;;;;;;;28.63;16.80;;;11.40;99.90;;;;;;4228539;28;20104;-59
2023/10/24 07:49:36;;;;;;;27.97;15.73;;;11.50;99.90;;;;;;4228833;28;20024;-59
2023/10/24 07:51:37;;;;;;;22.43;14.93;;;11.50;99.90;;;;;;4228224;28;20059;-59
2023/10/24 07:53:38;;;;;;;22.93;14.47;;;11.60;99.90;;;;;;4229191;28;20104;-59
2023/10/24 07:55:39;;;;;;;23.33;14.57;;;11.70;99.90;;;;;;4228528;27;20518;-60
2023/10/24 07:57:40;;;;;;;24.23;14.80;;;11.80;99.90;;;;;;4229737;28;20149;-61
2023/10/24 07:59:41;;;;;;;23.33;15.53;;;11.80;99.90;;;;;;4228415;28;20056;-60
2023/10/24 08:01:42;;;;;;;28.27;16.87;;;11.80;99.90;;;;;;4229314;28;20073;-61
2023/10/24 08:03:44;;;;;;;32.00;17.70;;;11.80;99.90;;;;;;4228097;28;20035;-61
2023/10/24 08:05:45;;;;;;;39.67;17.97;;;11.90;99.90;;;;;;4229112;27;20027;-59
2023/10/24 08:07:46;;;;;;;30.53;18.63;;;12.00;99.90;;;;;;4228929;27;20055;-60
2023/10/24 08:09:47;;;;;;;31.13;18.63;;;12.20;99.90;;;;;;4228922;28;20442;-60
2023/10/24 08:11:48;;;;;;;36.17;18.37;;;12.30;99.90;;;;;;4228699;28;20039;-59
2023/10/24 08:13:50;;;;;;;31.77;21.37;;;12.30;99.90;;;;;;4228428;28;20035;-59
2023/10/24 08:15:52;;;;;;;34.10;20.83;;;12.30;99.90;;;;;;4228977;28;20024;-60
2023/10/24 08:17:53;;;;;;;35.40;21.47;;;12.30;99.90;;;;;;4227965;28;20032;-60
2023/10/24 08:19:54;;;;;;;32.27;20.20;;;12.40;99.90;;;;;;4229750;27;20036;-59
2023/10/24 08:21:55;;;;;;;44.50;22.30;;;12.40;99.90;;;;;;4228131;28;20480;-62
2023/10/24 08:23:58;;;;;;;33.17;22.07;;;12.40;99.90;;;;;;4229520;27;20104;-59
2023/10/24 08:25:59;;;;;;;31.83;19.73;;;12.60;99.90;;;;;;4228308;27;20620;-61
2023/10/24 08:28:01;;;;;;;30.53;20.37;;;12.70;99.90;;;;;;4229062;28;20073;-61
2023/10/24 08:30:06;;;;;;;33.90;19.77;;;12.70;99.90;;;;;;4227795;28;20084;-60
2023/10/24 08:32:07;;;;;;;21.50;14.67;;;12.80;99.90;;;;;;4229004;28;20098;-60
2023/10/24 08:34:08;;;;;;;21.43;13.13;;;12.90;99.90;;;;;;4227894;28;20851;-60
2023/10/24 08:36:10;;;;;;;23.33;12.60;;;13.00;99.90;;;;;;4229138;27;20452;-59
2023/10/24 08:38:11;;;;;;;22.30;11.13;;;13.00;99.90;;;;;;4227707;28;20043;-61
2023/10/24 08:40:13;;;;;;;19.97;11.17;;;13.10;99.90;;;;;;4228703;28;20085;-61
2023/10/24 08:42:14;;;;;;;17.67;10.13;;;13.10;99.90;;;;;;4228020;28;20035;-60
2023/10/24 08:44:19;;;;;;;20.07;10.90;;;13.20;99.90;;;;;;4228452;28;20739;-61
2023/10/24 08:46:20;;;;;;;23.53;11.53;;;13.30;99.90;;;;;;4228446;28;20072;-61
2023/10/24 08:48:21;;;;;;;19.47;10.97;;;13.40;99.90;;;;;;4228491;27;20061;-60
2023/10/24 08:50:22;;;;;;;20.60;11.80;;;13.40;99.90;;;;;;4229256;27;20495;-60
2023/10/24 08:52:23;;;;;;;19.43;11.40;;;13.60;99.90;;;;;;4227928;27;20458;-60
2023/10/24 08:54:25;;;;;;;44.25;20.50;;;13.70;99.90;;;;;;4228352;28;20533;-61
2023/10/24 08:56:27;;;;;;;38.60;19.07;;;13.80;99.90;;;;;;4227470;28;20019;-59
2023/10/24 08:58:28;;;;;;;27.13;13.17;;;13.80;99.90;;;;;;4228681;28;20089;-60
2023/10/24 09:00:30;;;;;;;22.63;11.33;;;14.00;99.90;;;;;;4226616;28;20060;-60
2023/10/24 09:02:31;;;;;;;27.10;12.95;;;14.00;99.90;;;;;;4227156;27;20036;-60
2023/10/24 09:04:35;;;;;;;22.25;12.05;;;14.10;99.90;;;;;;4227408;28;20698;-60
2023/10/24 09:06:37;;;;;;;15.98;8.50;;;14.30;99.90;;;;;;4228598;28;20031;-61
2023/10/24 09:08:39;;;;;;;13.77;8.27;;;14.30;99.90;;;;;;4227379;27;20059;-61
2023/10/24 09:10:40;;;;;;;11.68;7.57;;;14.30;99.90;;;;;;4228562;27;20040;-62
2023/10/24 09:12:41;;;;;;;12.23;6.97;;;14.40;99.90;;;;;;4227250;28;20495;-61
2023/10/24 09:14:46;;;;;;;17.55;9.98;;;14.30;99.90;;;;;;4227859;27;20438;-61
2023/10/24 09:17:05;;;;;;;18.00;9.48;;;14.40;99.90;;;;;;4227854;28;20035;-61
2023/10/24 09:19:12;;;;;;;12.25;7.97;;;14.40;99.90;;;;;;4228153;28;20096;-61
2023/10/24 09:21:13;;;;;;;14.32;7.10;;;14.50;99.90;;;;;;4227198;28;20108;-60
2023/10/24 09:23:14;;;;;;;13.18;7.40;;;14.50;99.90;;;;;;4227473;28;20065;-60
2023/10/24 09:25:20;;;;;;;15.38;8.32;;;14.60;99.90;;;;;;4227496;28;20434;-61
2023/10/24 09:27:27;;;;;;;15.27;8.13;;;14.60;99.90;;;;;;4227610;28;20040;-60
2023/10/24 09:29:31;;;;;;;15.32;7.55;;;14.70;99.90;;;;;;4227805;28;20035;-62
2023/10/24 09:31:33;;;;;;;16.98;8.45;;;14.70;99.90;;;;;;4227076;27;20113;-61
2023/10/24 09:33:35;;;;;;;20.27;11.75;;;14.70;99.90;;;;;;4228148;28;20351;-60
2023/10/24 09:35:37;;;;;;;17.23;9.18;;;14.80;99.90;;;;;;4226635;28;20036;-60
2023/10/24 09:37:47;;;;;;;14.38;7.75;;;14.80;99.90;;;;;;4227861;28;20039;-60
2023/10/24 09:39:59;;;;;;;16.85;7.63;;;14.90;99.90;;;;;;4226862;27;20043;-60
2023/10/24 09:42:00;;;;;;;23.80;8.15;;;14.90;99.90;;;;;;4228183;28;20379;-60
2023/10/24 09:44:02;;;;;;;18.52;7.60;;;14.90;99.90;;;;;;4226981;27;20438;-60
2023/10/24 09:46:05;;;;;;;17.90;8.25;;;15.00;99.90;;;;;;4227518;28;20084;-59
2023/10/24 09:48:08;;;;;;;21.65;9.35;;;15.00;99.90;;;;;;4226798;28;20096;-60
2023/10/24 09:50:11;;;;;;;15.35;7.70;;;15.00;99.90;;;;;;4227658;28;20545;-61
2023/10/24 09:52:12;;;;;;;14.27;6.63;;;15.00;99.90;;;;;;4226622;28;20085;-61
2023/10/24 09:54:15;;;;;;;12.63;6.47;;;15.10;99.90;;;;;;4227823;28;20032;-61
2023/10/24 09:56:17;;;;;;;12.80;6.78;;;15.10;99.90;;;;;;4226291;28;20028;-60
2023/10/24 09:58:22;;;;;;;14.07;6.95;;;15.20;99.90;;;;;;4227456;28;20066;-60
2023/10/24 10:00:24;;;;;;;14.30;7.53;;;15.20;99.90;;;;;;4226722;28;20020;-61
2023/10/24 10:02:26;;;;;;;11.25;6.57;;;15.30;99.90;;;;;;4227419;28;20028;-62
2023/10/24 10:04:28;;;;;;;11.68;6.47;;;15.40;99.90;;;;;;4226507;28;20080;-61
2023/10/24 10:06:30;;;;;;;20.20;7.50;;;15.50;99.90;;;;;;4227053;28;20073;-60
2023/10/24 10:08:36;;;;;;;13.23;7.30;;;15.60;99.90;;;;;;4227152;28;20483;-61
2023/10/24 10:10:38;;;;;;;14.18;6.13;;;15.70;99.90;;;;;;4227127;28;20048;-60
2023/10/24 10:12:40;;;;;;;9.45;6.53;;;15.70;99.90;;;;;;4227310;28;20437;-62
2023/10/24 10:15:08;;;;;;;15.98;6.60;;;15.70;99.90;;;;;;4226449;28;20057;-61
2023/10/24 10:17:26;;;;;;;14.70;6.75;;;15.80;99.90;;;;;;4218492;28;20912;-61
2023/10/24 10:19:30;;;;;;;14.15;7.25;;;15.90;99.90;;;;;;4227187;28;20035;-61
2023/10/24 10:21:50;;;;;;;13.25;6.43;;;16.00;99.90;;;;;;4227239;28;20479;-61
2023/10/24 10:24:31;;;;;;;15.35;6.95;;;16.00;99.90;;;;;;4226971;28;20488;-60
2023/10/24 10:26:53;;;;;;;12.70;7.15;;;15.90;99.90;;;;;;4226508;28;20460;-60